Time;durP1;ratioP1;P1;durP2;ratioP2;P2;SDS_P1;SDS_P2;PMS_P1;PMS_P2;Temp;Humidity;BMP_temperature;BMP_pressure;BME280_temperature;BME280_humidity;BME280_pressure;Samples;Min_cycle;Max_cycle;Signal;HPM_P1;HPM_P2
2021/01/23 00:00:23;;;;;;;15.93;12.60;;;6.00;96.90;;;;;;5052936;28;20178;-74
2021/01/23 00:02:49;;;;;;;16.37;13.27;;;6.00;97.30;;;;;;5084233;28;20459;-74
2021/01/23 00:05:15;;;;;;;17.60;13.10;;;6.00;96.90;;;;;;5084737;28;20945;-74
2021/01/23 00:07:41;;;;;;;16.10;14.40;;;6.00;96.60;;;;;;5051148;28;20228;-74
2021/01/23 00:10:07;;;;;;;15.00;13.40;;;6.10;96.80;;;;;;5052486;28;20419;-74
2021/01/23 00:12:33;;;;;;;17.57;13.70;;;5.90;96.90;;;;;;5051810;28;20499;-74
2021/01/23 00:15:00;;;;;;;16.60;14.03;;;6.00;97.10;;;;;;5052942;28;20512;-74
2021/01/23 00:17:26;;;;;;;14.65;13.05;;;6.00;96.90;;;;;;5051975;28;20781;-73
2021/01/23 00:19:52;;;;;;;15.20;12.93;;;6.00;96.70;;;;;;5051757;28;20174;-74
2021/01/23 00:22:18;;;;;;;15.93;13.20;;;6.00;96.80;;;;;;5052301;28;20375;-74
2021/01/23 00:24:43;;;;;;;15.93;14.33;;;5.90;96.80;;;;;;5050427;28;20223;-74
2021/01/23 00:27:09;;;;;;;15.97;14.37;;;6.00;96.80;;;;;;5051904;28;20677;-74
2021/01/23 00:29:35;;;;;;;15.50;13.90;;;5.90;96.90;;;;;;5051307;28;20182;-74
2021/01/23 00:32:00;;;;;;;15.47;13.83;;;5.90;96.70;;;;;;5052244;28;20508;-72
2021/01/23 00:34:26;;;;;;;19.20;14.00;;;5.90;96.80;;;;;;5052007;28;20236;-72
2021/01/23 00:36:52;;;;;;;16.70;14.20;;;5.90;96.80;;;;;;5050880;28;20189;-71
2021/01/23 00:39:18;;;;;;;17.83;13.70;;;5.90;96.90;;;;;;5052028;28;20174;-71
2021/01/23 00:41:43;;;;;;;17.50;15.50;;;5.90;96.70;;;;;;5051305;28;20178;-72
2021/01/23 00:44:09;;;;;;;19.50;15.50;;;5.90;96.90;;;;;;5050764;28;20331;-72
2021/01/23 00:46:35;;;;;;;16.37;14.57;;;5.90;97.00;;;;;;5050690;28;20170;-72
2021/01/23 00:49:00;;;;;;;16.47;14.77;;;5.90;96.80;;;;;;5051956;28;20188;-71
2021/01/23 00:51:26;;;;;;;16.53;14.83;;;5.80;96.90;;;;;;5050865;28;20218;-71
2021/01/23 00:53:53;;;;;;;20.65;14.57;;;5.90;97.20;;;;;;5050627;28;20194;-72
2021/01/23 00:56:18;;;;;;;16.37;14.67;;;5.80;97.20;;;;;;5084230;28;20177;-72
2021/01/23 00:58:44;;;;;;;16.23;14.30;;;5.80;97.10;;;;;;5051139;28;20178;-71
2021/01/23 01:01:10;;;;;;;16.57;14.23;;;5.80;97.00;;;;;;5050630;28;20580;-72
2021/01/23 01:03:36;;;;;;;16.52;14.88;;;5.90;97.10;;;;;;5050827;28;20178;-72
2021/01/23 01:06:02;;;;;;;17.00;15.20;;;5.80;97.00;;;;;;5051449;28;20182;-71
2021/01/23 01:08:28;;;;;;;16.13;13.73;;;5.80;97.00;;;;;;5051791;28;20573;-72
2021/01/23 01:10:54;;;;;;;16.83;15.13;;;5.90;97.20;;;;;;5050821;28;20214;-71
2021/01/23 01:13:22;;;;;;;18.55;14.70;;;5.80;97.20;;;;;;5050572;28;20574;-71
2021/01/23 01:15:48;;;;;;;16.73;14.00;;;5.80;97.20;;;;;;5050231;28;20213;-71
2021/01/23 01:18:14;;;;;;;15.60;12.60;;;5.80;97.10;;;;;;5052237;28;20185;-71
2021/01/23 01:20:40;;;;;;;14.87;13.27;;;5.80;97.00;;;;;;5053012;28;20641;-71
2021/01/23 01:23:06;;;;;;;15.65;13.80;;;5.80;97.00;;;;;;5051698;28;20212;-71
2021/01/23 01:25:32;;;;;;;18.77;13.13;;;5.80;97.20;;;;;;5047118;28;20213;-71
2021/01/23 01:27:58;;;;;;;15.70;13.37;;;5.80;97.30;;;;;;5051045;28;20280;-71
2021/01/23 01:30:24;;;;;;;15.47;13.70;;;5.80;97.30;;;;;;5051616;28;20185;-71
2021/01/23 01:32:50;;;;;;;15.00;13.50;;;5.70;97.10;;;;;;5047007;28;20186;-71
2021/01/23 01:35:16;;;;;;;16.83;13.23;;;5.70;97.30;;;;;;5051404;28;20178;-71
2021/01/23 01:37:43;;;;;;;17.50;14.52;;;5.80;97.20;;;;;;5050569;28;20208;-72
2021/01/23 01:40:10;;;;;;;18.63;14.80;;;5.80;97.00;;;;;;5050508;28;20175;-71
2021/01/23 01:42:36;;;;;;;15.60;13.18;;;5.70;96.90;;;;;;5050817;28;20162;-72
2021/01/23 01:45:02;;;;;;;15.37;13.77;;;5.70;97.00;;;;;;5051310;28;20180;-76
2021/01/23 01:47:28;;;;;;;15.90;13.77;;;5.70;96.90;;;;;;5051558;28;20248;-72
2021/01/23 01:49:57;;;;;;;20.10;15.37;;;5.70;96.80;;;;;;5050734;28;20256;-72
2021/01/23 01:52:23;;;;;;;17.13;13.55;;;5.70;96.90;;;;;;5050342;28;20424;-71
2021/01/23 01:54:51;;;;;;;14.95;13.25;;;5.70;96.90;;;;;;5050356;28;20261;-71
2021/01/23 01:57:21;;;;;;;15.48;13.85;;;5.70;97.00;;;;;;5051975;28;20263;-71
2021/01/23 01:59:48;;;;;;;14.07;12.68;;;5.70;97.30;;;;;;5049029;28;20193;-71
2021/01/23 02:02:48;;;;;;;16.92;13.80;;;5.70;97.30;;;;;;5052854;28;20182;-71
2021/01/23 02:05:45;;;;;;;16.30;12.13;;;5.70;97.40;;;;;;5026642;28;20190;-71
2021/01/23 02:08:24;;;;;;;14.60;13.05;;;5.70;97.30;;;;;;5035097;28;20229;-71
2021/01/23 02:11:17;;;;;;;14.98;12.82;;;5.70;97.30;;;;;;5033159;28;20178;-71
2021/01/23 02:14:21;;;;;;;15.45;13.85;;;5.70;97.20;;;;;;5034330;28;20167;-71
2021/01/23 02:16:49;;;;;;;16.55;13.20;;;5.70;97.10;;;;;;5040521;28;20200;-71
2021/01/23 02:19:43;;;;;;;15.32;13.07;;;5.60;97.10;;;;;;5034618;28;20178;-71
2021/01/23 02:22:23;;;;;;;16.63;13.80;;;5.60;97.30;;;;;;5034921;28;20158;-71
2021/01/23 02:24:52;;;;;;;17.25;13.85;;;5.60;97.40;;;;;;5044523;28;20185;-71
2021/01/23 02:27:35;;;;;;;20.08;13.80;;;5.60;97.40;;;;;;5054588;28;20552;-71
2021/01/23 02:30:04;;;;;;;15.98;13.48;;;5.60;97.90;;;;;;5054278;28;20174;-71
2021/01/23 02:32:32;;;;;;;19.25;15.63;;;5.60;97.30;;;;;;5054244;28;20177;-71
2021/01/23 02:35:00;;;;;;;15.50;13.90;;;5.60;97.40;;;;;;5053793;28;20181;-71
2021/01/23 02:37:28;;;;;;;16.48;14.50;;;5.60;97.40;;;;;;5054186;28;20224;-71
2021/01/23 02:39:54;;;;;;;21.10;15.25;;;5.60;97.30;;;;;;5053641;28;20606;-71
2021/01/23 02:42:20;;;;;;;20.52;15.82;;;5.60;97.40;;;;;;5054837;28;20240;-72
2021/01/23 02:44:46;;;;;;;19.67;16.30;;;5.60;97.50;;;;;;5053314;28;20627;-71
2021/01/23 02:47:12;;;;;;;16.33;14.63;;;5.70;97.50;;;;;;5054206;28;20240;-71
2021/01/23 02:49:37;;;;;;;16.23;14.37;;;5.60;97.70;;;;;;5052392;28;20229;-71
2021/01/23 02:52:45;;;;;;;19.50;13.87;;;5.60;98.00;;;;;;5053970;28;20178;-72
2021/01/23 02:55:15;;;;;;;18.40;14.80;;;5.70;98.10;;;;;;5052812;28;20482;-72
2021/01/23 02:57:43;;;;;;;15.88;14.20;;;5.70;97.80;;;;;;5052872;28;20182;-72
2021/01/23 03:00:11;;;;;;;16.58;14.73;;;5.70;97.90;;;;;;5086442;28;20207;-71
2021/01/23 03:02:41;;;;;;;17.27;14.00;;;5.70;97.80;;;;;;5053927;28;20201;-71
2021/01/23 03:05:08;;;;;;;17.75;13.73;;;5.70;97.50;;;;;;5054025;28;20165;-71
2021/01/23 03:07:34;;;;;;;14.70;12.73;;;5.70;97.50;;;;;;5053864;28;20240;-71
2021/01/23 03:10:07;;;;;;;16.50;13.60;;;5.70;97.50;;;;;;5053294;28;20215;-71
2021/01/23 03:12:34;;;;;;;14.93;12.75;;;5.60;97.50;;;;;;5053899;28;20401;-72
2021/01/23 03:15:00;;;;;;;17.80;14.10;;;5.70;97.40;;;;;;5052261;28;20178;-72
2021/01/23 03:17:26;;;;;;;17.07;13.80;;;5.60;97.40;;;;;;5053768;28;20174;-71
2021/01/23 03:19:52;;;;;;;16.20;13.82;;;5.60;97.60;;;;;;5052335;28;20947;-72
2021/01/23 03:22:18;;;;;;;17.92;14.93;;;5.60;97.70;;;;;;5053512;28;20177;-71
2021/01/23 03:24:44;;;;;;;17.53;12.90;;;5.60;97.60;;;;;;5051639;28;20181;-72
2021/01/23 03:27:10;;;;;;;15.73;13.82;;;5.60;97.50;;;;;;5053469;28;20460;-71
2021/01/23 03:29:36;;;;;;;23.70;14.23;;;5.60;97.30;;;;;;5052660;28;20509;-72
2021/01/23 03:32:02;;;;;;;18.53;13.47;;;5.60;97.50;;;;;;5052599;28;20359;-72
2021/01/23 03:34:27;;;;;;;18.17;13.87;;;5.60;97.50;;;;;;5053434;28;20249;-72
2021/01/23 03:36:53;;;;;;;20.23;14.80;;;5.60;97.40;;;;;;5052355;28;20256;-72
2021/01/23 03:39:19;;;;;;;17.37;14.27;;;5.60;97.30;;;;;;5053062;28;20182;-72
2021/01/23 03:41:44;;;;;;;17.40;14.00;;;5.60;97.30;;;;;;5052503;28;20181;-72
2021/01/23 03:44:10;;;;;;;19.47;14.60;;;5.60;97.40;;;;;;5053400;28;20178;-72
2021/01/23 03:46:36;;;;;;;15.03;13.07;;;5.60;97.40;;;;;;5053176;28;20189;-72
2021/01/23 03:49:02;;;;;;;15.97;14.27;;;5.60;97.20;;;;;;5052406;28;21125;-72
2021/01/23 03:51:28;;;;;;;17.08;13.38;;;5.60;97.30;;;;;;5053212;28;20222;-72
2021/01/23 03:53:53;;;;;;;17.23;12.47;;;5.60;97.20;;;;;;5052337;28;20529;-72
2021/01/23 03:56:19;;;;;;;15.20;12.57;;;5.60;97.20;;;;;;5052760;28;20185;-72
2021/01/23 03:58:45;;;;;;;15.20;11.40;;;5.60;97.30;;;;;;5052149;28;20551;-72
2021/01/23 04:01:11;;;;;;;14.70;13.20;;;5.60;97.30;;;;;;5052608;28;20698;-72
2021/01/23 04:03:37;;;;;;;15.10;12.20;;;5.60;97.20;;;;;;5051665;28;20178;-72
2021/01/23 04:06:03;;;;;;;18.08;12.27;;;5.60;97.00;;;;;;5052024;28;20174;-72
2021/01/23 04:08:30;;;;;;;13.98;11.80;;;5.50;97.00;;;;;;5048780;28;20201;-72
2021/01/23 04:10:56;;;;;;;14.50;12.20;;;5.60;97.10;;;;;;5051600;28;20174;-72
2021/01/23 04:13:23;;;;;;;18.95;12.48;;;5.60;97.30;;;;;;5052454;28;20256;-72
2021/01/23 04:15:48;;;;;;;16.55;13.60;;;5.60;97.20;;;;;;5050256;28;20540;-72
2021/01/23 04:18:14;;;;;;;17.63;13.60;;;5.60;97.30;;;;;;5051924;28;20194;-74
2021/01/23 04:20:40;;;;;;;16.17;13.43;;;5.60;97.30;;;;;;5052366;28;20435;-74
2021/01/23 04:23:06;;;;;;;17.10;12.23;;;5.60;97.60;;;;;;5052142;28;20444;-74
2021/01/23 04:25:32;;;;;;;16.03;13.07;;;5.60;97.80;;;;;;5052523;28;20430;-74
2021/01/23 04:27:58;;;;;;;14.17;11.93;;;5.70;97.60;;;;;;5051653;28;20217;-74
2021/01/23 04:30:24;;;;;;;14.67;12.00;;;5.70;97.40;;;;;;5052481;28;20396;-74
2021/01/23 04:32:51;;;;;;;15.95;11.55;;;5.70;97.20;;;;;;5051596;28;20162;-74
2021/01/23 04:35:17;;;;;;;15.75;13.45;;;5.70;97.00;;;;;;5052129;28;20182;-74
2021/01/23 04:37:42;;;;;;;15.67;13.23;;;5.70;96.80;;;;;;5051994;28;20192;-74
2021/01/23 04:40:09;;;;;;;16.07;13.17;;;5.70;96.80;;;;;;5052136;28;20393;-74
2021/01/23 04:42:42;;;;;;;15.45;13.52;;;5.70;96.80;;;;;;5052209;28;20201;-74
2021/01/23 04:45:12;;;;;;;19.10;13.45;;;5.70;96.80;;;;;;5050644;28;20193;-74
2021/01/23 04:47:39;;;;;;;14.52;12.50;;;5.60;96.80;;;;;;5052173;28;20251;-74
2021/01/23 04:50:10;;;;;;;15.38;13.50;;;5.60;96.80;;;;;;5049914;28;20244;-74
2021/01/23 04:52:38;;;;;;;13.85;12.13;;;5.60;96.90;;;;;;5051533;28;20201;-74
2021/01/23 04:55:06;;;;;;;14.82;13.25;;;5.60;97.30;;;;;;5051084;28;20235;-74
2021/01/23 04:57:32;;;;;;;15.98;13.88;;;5.60;97.40;;;;;;5052039;28;20181;-74
2021/01/23 04:59:57;;;;;;;14.50;12.63;;;5.60;97.20;;;;;;5050953;28;20174;-74
2021/01/23 05:02:23;;;;;;;14.80;12.97;;;5.60;97.10;;;;;;5052006;28;20470;-74
2021/01/23 05:04:52;;;;;;;13.97;12.47;;;5.60;96.90;;;;;;5051016;28;20174;-74
2021/01/23 05:07:44;;;;;;;15.52;13.00;;;5.60;96.90;;;;;;5047328;28;20460;-74
2021/01/23 05:10:20;;;;;;;13.98;12.50;;;5.60;97.10;;;;;;5042830;28;20193;-74
2021/01/23 05:12:48;;;;;;;15.73;13.00;;;5.70;97.10;;;;;;5050601;28;20253;-74
2021/01/23 05:15:24;;;;;;;16.58;12.57;;;5.70;97.20;;;;;;5030748;28;20528;-74
2021/01/23 05:17:50;;;;;;;18.33;12.85;;;5.70;97.20;;;;;;5042183;28;20517;-74
2021/01/23 05:20:42;;;;;;;15.18;11.90;;;5.70;97.10;;;;;;5051871;28;20166;-74
2021/01/23 05:23:16;;;;;;;15.38;12.57;;;5.70;97.10;;;;;;5049747;28;20522;-74
2021/01/23 05:25:43;;;;;;;14.77;12.18;;;5.70;97.00;;;;;;5051955;28;20166;-74
2021/01/23 05:28:11;;;;;;;12.48;9.50;;;5.70;96.80;;;;;;5046932;28;20552;-74
2021/01/23 05:30:51;;;;;;;11.73;8.68;;;5.70;97.10;;;;;;5034201;28;20204;-74
2021/01/23 05:33:25;;;;;;;12.75;9.93;;;5.80;97.30;;;;;;5050859;28;20166;-74
2021/01/23 05:36:07;;;;;;;10.40;9.23;;;5.80;97.20;;;;;;5051124;28;20166;-74
2021/01/23 05:38:37;;;;;;;13.68;9.75;;;5.80;97.40;;;;;;5055598;28;20166;-74
2021/01/23 05:41:06;;;;;;;9.82;8.68;;;5.80;97.30;;;;;;5050625;28;20185;-74
2021/01/23 05:43:45;;;;;;;10.83;8.37;;;5.90;97.40;;;;;;5055538;28;20185;-74
2021/01/23 05:46:11;;;;;;;9.23;8.23;;;6.00;97.30;;;;;;5054886;28;20385;-74
2021/01/23 05:48:43;;;;;;;10.17;9.20;;;6.10;97.20;;;;;;5055511;28;20210;-74
2021/01/23 05:51:10;;;;;;;9.88;8.73;;;6.20;97.00;;;;;;5038654;28;20217;-74
2021/01/23 05:53:35;;;;;;;10.20;8.50;;;6.20;96.90;;;;;;5053588;28;20252;-74
2021/01/23 05:56:04;;;;;;;9.13;8.23;;;6.20;96.80;;;;;;5055098;28;20626;-74
2021/01/23 05:58:31;;;;;;;10.55;8.80;;;6.20;96.60;;;;;;5055130;28;20206;-74
2021/01/23 06:00:59;;;;;;;10.40;9.07;;;6.20;96.40;;;;;;5054056;28;20170;-74
2021/01/23 06:03:48;;;;;;;11.68;9.38;;;6.30;96.30;;;;;;5055182;28;20204;-74
2021/01/23 06:06:14;;;;;;;10.30;9.20;;;6.30;96.40;;;;;;5054718;28;20177;-74
2021/01/23 06:08:44;;;;;;;9.50;8.40;;;6.30;96.50;;;;;;5054982;28;20423;-74
2021/01/23 06:11:18;;;;;;;13.00;8.33;;;6.30;96.60;;;;;;5053887;28;20179;-74
2021/01/23 06:13:48;;;;;;;8.93;8.07;;;6.20;96.60;;;;;;5046666;28;20415;-74
2021/01/23 06:16:32;;;;;;;8.07;7.30;;;6.20;96.90;;;;;;5054443;28;20248;-74
2021/01/23 06:19:07;;;;;;;9.40;8.50;;;6.20;96.60;;;;;;5034193;28;20177;-74
2021/01/23 06:21:44;;;;;;;9.00;8.10;;;6.30;96.80;;;;;;5037339;28;20517;-74
2021/01/23 06:24:12;;;;;;;8.97;7.80;;;6.40;96.80;;;;;;5053653;28;20661;-74
2021/01/23 06:26:53;;;;;;;10.65;7.45;;;6.40;96.70;;;;;;5054707;28;20492;-74
2021/01/23 06:29:39;;;;;;;8.10;7.20;;;6.40;96.80;;;;;;5054973;28;20626;-74
2021/01/23 06:32:14;;;;;;;10.30;8.27;;;6.30;96.80;;;;;;5053356;28;20436;-74
2021/01/23 06:34:53;;;;;;;9.00;8.10;;;6.40;96.90;;;;;;5053246;28;20406;-74
2021/01/23 06:37:29;;;;;;;10.20;8.10;;;6.40;96.90;;;;;;5054475;28;20420;-74
2021/01/23 06:40:10;;;;;;;10.30;8.67;;;6.40;96.90;;;;;;5053754;28;20205;-74
2021/01/23 06:42:41;;;;;;;8.88;7.97;;;6.40;96.90;;;;;;5053703;28;20970;-74
2021/01/23 06:45:11;;;;;;;12.52;9.00;;;6.40;96.90;;;;;;5035567;28;20634;-74
2021/01/23 06:47:42;;;;;;;9.32;8.13;;;6.40;96.90;;;;;;5053018;28;20220;-74
2021/01/23 06:50:09;;;;;;;8.80;8.00;;;6.40;97.20;;;;;;5052386;28;20225;-74
2021/01/23 06:52:50;;;;;;;9.38;8.07;;;6.50;97.20;;;;;;5054164;28;20190;-74
2021/01/23 06:55:36;;;;;;;9.07;8.18;;;6.50;97.20;;;;;;5053740;28;20236;-74
2021/01/23 06:58:02;;;;;;;9.63;8.73;;;6.50;97.30;;;;;;5052231;28;20239;-74
2021/01/23 07:00:34;;;;;;;8.33;7.50;;;6.50;97.30;;;;;;5053821;28;20852;-74
2021/01/23 07:03:13;;;;;;;10.55;9.35;;;6.50;97.30;;;;;;5053005;28;20412;-74
2021/01/23 07:05:53;;;;;;;12.70;9.30;;;6.50;97.20;;;;;;5051969;28;20173;-74
2021/01/23 07:08:23;;;;;;;8.93;8.02;;;6.40;97.50;;;;;;5034140;28;20198;-75
2021/01/23 07:11:17;;;;;;;8.35;7.55;;;6.50;97.70;;;;;;5034199;28;20175;-75
2021/01/23 07:14:04;;;;;;;8.15;7.35;;;6.40;98.10;;;;;;5048397;28;20272;-74
2021/01/23 07:16:32;;;;;;;8.23;7.05;;;6.40;98.30;;;;;;5053467;28;20174;-74
2021/01/23 07:19:03;;;;;;;8.77;7.00;;;6.40;98.60;;;;;;5051809;28;20673;-74
2021/01/23 07:21:35;;;;;;;7.05;6.43;;;6.50;98.50;;;;;;5053506;28;20156;-74
2021/01/23 07:24:01;;;;;;;8.20;7.35;;;6.30;98.70;;;;;;5052991;28;20178;-74
2021/01/23 07:26:28;;;;;;;7.40;6.65;;;6.30;98.70;;;;;;5053690;28;20200;-75
2021/01/23 07:28:55;;;;;;;6.90;6.20;;;6.40;98.90;;;;;;5051597;28;20217;-75
2021/01/23 07:31:23;;;;;;;6.83;6.27;;;6.50;98.70;;;;;;5053665;28;20417;-75
2021/01/23 07:33:49;;;;;;;8.20;7.40;;;6.70;98.60;;;;;;5053600;28;20418;-75
2021/01/23 07:36:39;;;;;;;7.50;6.80;;;6.70;98.40;;;;;;5052562;28;20379;-74
2021/01/23 07:39:11;;;;;;;9.67;7.10;;;6.80;98.00;;;;;;5052630;28;20455;-75
2021/01/23 07:41:41;;;;;;;7.53;6.83;;;6.80;97.70;;;;;;5054290;28;20423;-75
2021/01/23 07:44:09;;;;;;;7.83;7.03;;;6.80;97.70;;;;;;5062082;28;20853;-74
2021/01/23 07:46:38;;;;;;;7.03;6.40;;;6.90;97.60;;;;;;5053141;28;20413;-74
2021/01/23 07:49:05;;;;;;;8.10;6.30;;;6.90;97.50;;;;;;5051360;28;20391;-75
2021/01/23 07:51:31;;;;;;;7.30;6.63;;;6.90;97.50;;;;;;5053223;28;20447;-74
2021/01/23 07:54:06;;;;;;;7.30;6.70;;;7.00;97.40;;;;;;5052233;28;20425;-75
2021/01/23 07:56:32;;;;;;;8.20;6.40;;;7.00;97.20;;;;;;5053123;28;20417;-75
2021/01/23 07:58:59;;;;;;;6.57;5.97;;;6.90;97.20;;;;;;5057487;28;20794;-75
2021/01/23 08:01:25;;;;;;;6.37;5.77;;;6.90;97.30;;;;;;5059479;28;20418;-74
2021/01/23 08:03:51;;;;;;;8.40;6.80;;;7.00;97.40;;;;;;5052964;28;20383;-75
2021/01/23 08:06:35;;;;;;;7.83;6.40;;;7.00;97.30;;;;;;5070541;28;20474;-75
2021/01/23 08:09:17;;;;;;;7.30;6.60;;;7.00;97.20;;;;;;5070804;28;20407;-75
2021/01/23 08:11:42;;;;;;;7.13;6.53;;;7.00;97.10;;;;;;5072733;28;20397;-74
2021/01/23 08:14:10;;;;;;;8.30;6.60;;;7.10;97.20;;;;;;5053786;28;20468;-74
2021/01/23 08:16:49;;;;;;;7.87;7.17;;;7.10;97.00;;;;;;5052342;28;20513;-73
2021/01/23 08:19:14;;;;;;;7.47;6.80;;;7.10;96.90;;;;;;5051710;28;20422;-72
2021/01/23 08:21:40;;;;;;;8.37;7.27;;;7.10;96.80;;;;;;5052521;28;20377;-72
2021/01/23 08:24:27;;;;;;;8.53;7.73;;;7.20;96.80;;;;;;5051383;28;20259;-73
2021/01/23 08:26:58;;;;;;;6.07;5.40;;;7.20;96.80;;;;;;5046921;28;20167;-78
2021/01/23 08:29:23;;;;;;;6.40;5.80;;;7.30;96.80;;;;;;5050412;28;20479;-76
2021/01/23 08:32:04;;;;;;;7.63;6.10;;;7.20;96.60;;;;;;5052052;28;20423;-78
2021/01/23 08:34:30;;;;;;;7.17;6.47;;;7.30;96.70;;;;;;5051822;28;20192;-74
2021/01/23 08:36:56;;;;;;;7.30;6.60;;;7.30;96.50;;;;;;5055480;28;20408;-74
2021/01/23 08:39:22;;;;;;;6.77;6.00;;;7.30;96.50;;;;;;5060837;28;20741;-74
2021/01/23 08:41:47;;;;;;;6.70;6.10;;;7.20;96.60;;;;;;5058766;28;20698;-73
2021/01/23 08:44:13;;;;;;;8.20;6.80;;;7.20;96.60;;;;;;5059337;28;20174;-74
2021/01/23 08:46:39;;;;;;;8.00;7.20;;;7.20;96.60;;;;;;5061242;28;20545;-74
2021/01/23 08:49:05;;;;;;;7.97;6.70;;;7.10;96.60;;;;;;5059300;28;20178;-74
2021/01/23 08:51:33;;;;;;;8.20;7.20;;;7.20;96.70;;;;;;5060003;28;20764;-74
2021/01/23 08:53:59;;;;;;;7.23;6.50;;;7.20;96.80;;;;;;5056215;28;20210;-74
2021/01/23 08:56:25;;;;;;;10.33;7.40;;;7.30;96.80;;;;;;5050156;28;20811;-74
2021/01/23 08:58:51;;;;;;;8.10;7.30;;;7.40;96.90;;;;;;5034048;28;20767;-74
2021/01/23 09:01:16;;;;;;;8.50;7.70;;;7.50;96.70;;;;;;5045469;28;20711;-74
2021/01/23 09:03:42;;;;;;;7.80;6.70;;;7.50;96.50;;;;;;5040241;28;20414;-74
2021/01/23 09:06:08;;;;;;;7.73;6.97;;;7.60;96.20;;;;;;5050986;28;20175;-73
2021/01/23 09:08:34;;;;;;;7.33;6.73;;;7.60;96.00;;;;;;5051250;28;20709;-74
2021/01/23 09:10:59;;;;;;;7.47;6.73;;;7.60;96.10;;;;;;5051186;28;20489;-73
2021/01/23 09:13:25;;;;;;;7.27;6.57;;;7.70;96.10;;;;;;5053832;28;20486;-74
2021/01/23 09:15:51;;;;;;;6.77;6.17;;;8.10;96.20;;;;;;5055628;28;20561;-74
2021/01/23 09:18:17;;;;;;;8.13;7.43;;;8.50;95.20;;;;;;5053775;28;20252;-72
2021/01/23 09:20:43;;;;;;;7.60;6.80;;;9.10;94.40;;;;;;5049231;28;20209;-74
2021/01/23 09:23:08;;;;;;;6.90;6.40;;;9.40;93.00;;;;;;5054696;28;20184;-74
2021/01/23 09:25:34;;;;;;;6.97;6.37;;;10.10;91.90;;;;;;5054555;28;20418;-74
2021/01/23 09:28:00;;;;;;;7.23;6.60;;;10.90;90.10;;;;;;5055060;28;20233;-74
2021/01/23 09:30:26;;;;;;;7.37;6.77;;;12.00;88.30;;;;;;5055345;28;20182;-74
2021/01/23 09:32:51;;;;;;;7.73;6.60;;;12.90;82.30;;;;;;5057142;28;20182;-75
2021/01/23 09:35:17;;;;;;;6.80;6.20;;;13.90;77.50;;;;;;5054791;28;20189;-74
2021/01/23 09:37:43;;;;;;;7.50;6.80;;;14.90;74.60;;;;;;5061001;28;20206;-74
2021/01/23 09:40:09;;;;;;;7.70;7.00;;;15.40;68.70;;;;;;5064459;28;20172;-74
2021/01/23 09:42:35;;;;;;;7.60;7.00;;;15.70;66.70;;;;;;5063959;28;20407;-74
2021/01/23 09:45:01;;;;;;;6.83;6.23;;;16.00;65.40;;;;;;5060876;28;20420;-74
2021/01/23 09:47:27;;;;;;;6.70;6.20;;;16.00;64.00;;;;;;5064102;28;20443;-74
2021/01/23 09:49:52;;;;;;;6.60;6.00;;;15.50;64.60;;;;;;5044636;28;20580;-74
2021/01/23 09:52:18;;;;;;;6.40;5.90;;;15.10;64.10;;;;;;5061051;28;20187;-74
2021/01/23 09:54:44;;;;;;;5.87;5.37;;;14.90;66.00;;;;;;5064767;28;20182;-74
2021/01/23 09:57:10;;;;;;;6.20;5.70;;;14.70;65.40;;;;;;5057712;28;20192;-74
2021/01/23 09:59:38;;;;;;;7.00;6.03;;;14.20;66.60;;;;;;5063037;28;20180;-74
2021/01/23 10:02:04;;;;;;;6.80;6.30;;;13.90;68.50;;;;;;5072602;28;20209;-74
2021/01/23 10:04:30;;;;;;;7.10;6.57;;;13.60;69.80;;;;;;5074334;28;20436;-74
2021/01/23 10:06:56;;;;;;;7.87;7.17;;;13.10;70.80;;;;;;5074073;28;20677;-74
2021/01/23 10:09:22;;;;;;;8.87;7.93;;;12.70;73.20;;;;;;5070911;28;20529;-74
2021/01/23 10:11:48;;;;;;;8.47;7.67;;;12.60;74.70;;;;;;5054630;28;20184;-74
2021/01/23 10:14:14;;;;;;;8.30;7.60;;;12.00;76.00;;;;;;5053513;28;20414;-74
2021/01/23 10:16:40;;;;;;;8.93;8.23;;;11.80;78.10;;;;;;5058568;28;20812;-74
2021/01/23 10:19:06;;;;;;;8.50;7.80;;;11.40;77.70;;;;;;5072434;28;20412;-74
2021/01/23 10:21:32;;;;;;;7.47;6.77;;;11.00;80.30;;;;;;5061327;28;20547;-74
2021/01/23 10:23:58;;;;;;;8.30;7.53;;;10.90;81.10;;;;;;5053180;28;20419;-74
2021/01/23 10:26:25;;;;;;;7.30;6.70;;;10.90;82.50;;;;;;5052353;28;20634;-74
2021/01/23 10:28:51;;;;;;;8.10;7.30;;;10.80;82.90;;;;;;5054624;28;20456;-77
2021/01/23 10:31:17;;;;;;;6.83;6.23;;;10.80;83.50;;;;;;5053688;28;20494;-77
2021/01/23 10:33:43;;;;;;;8.60;7.80;;;10.70;83.80;;;;;;5054497;28;20475;-77
2021/01/23 10:36:09;;;;;;;7.57;6.90;;;10.70;84.10;;;;;;5052723;28;20501;-77
2021/01/23 10:38:35;;;;;;;7.90;7.17;;;10.60;84.20;;;;;;5055410;28;20185;-77
2021/01/23 10:41:01;;;;;;;8.70;7.67;;;10.50;85.20;;;;;;5059313;28;20412;-74
2021/01/23 10:43:26;;;;;;;10.23;7.03;;;10.50;85.30;;;;;;5057284;28;20193;-77
2021/01/23 10:45:52;;;;;;;7.80;7.00;;;10.50;85.40;;;;;;5054296;28;20419;-74
2021/01/23 10:48:18;;;;;;;7.80;7.10;;;10.60;85.50;;;;;;5053113;28;20247;-74
2021/01/23 10:50:44;;;;;;;8.63;7.73;;;10.60;86.00;;;;;;5053121;28;20222;-76
2021/01/23 10:53:10;;;;;;;8.07;7.37;;;10.70;86.20;;;;;;5053100;28;20604;-74
2021/01/23 10:55:35;;;;;;;8.70;7.80;;;10.70;85.40;;;;;;5052738;28;20237;-74
2021/01/23 10:58:01;;;;;;;8.10;7.30;;;10.80;85.90;;;;;;5053768;28;20170;-76
2021/01/23 11:00:27;;;;;;;6.80;6.20;;;10.80;85.90;;;;;;5052968;28;20177;-73
2021/01/23 11:02:53;;;;;;;7.23;6.63;;;10.80;85.80;;;;;;5053722;28;20429;-73
2021/01/23 11:05:19;;;;;;;7.90;6.60;;;10.90;86.30;;;;;;5053098;28;20424;-72
2021/01/23 11:07:45;;;;;;;7.50;6.80;;;10.80;85.80;;;;;;5053865;28;20674;-74
2021/01/23 11:10:11;;;;;;;7.63;6.90;;;11.00;85.60;;;;;;5051939;28;20177;-74
2021/01/23 11:12:37;;;;;;;8.47;7.57;;;11.00;86.20;;;;;;5053778;28;20615;-74
2021/01/23 11:15:04;;;;;;;8.27;7.57;;;11.00;85.50;;;;;;5053485;28;20419;-74
2021/01/23 11:17:30;;;;;;;7.60;6.90;;;10.90;85.20;;;;;;5052945;28;20191;-74
2021/01/23 11:19:55;;;;;;;8.83;7.93;;;11.10;86.10;;;;;;5053698;28;20899;-73
2021/01/23 11:22:21;;;;;;;9.30;8.33;;;11.30;85.20;;;;;;5051968;28;20262;-75
2021/01/23 11:24:47;;;;;;;8.63;7.93;;;11.50;84.60;;;;;;5053181;28;20199;-73
2021/01/23 11:27:12;;;;;;;8.53;7.73;;;11.80;82.80;;;;;;5052378;28;20240;-75
2021/01/23 11:29:38;;;;;;;11.40;9.13;;;11.60;80.90;;;;;;5053270;28;20211;-77
2021/01/23 11:32:04;;;;;;;15.50;12.83;;;11.60;84.60;;;;;;5065693;28;20245;-77
2021/01/23 11:34:30;;;;;;;13.33;9.20;;;12.00;84.40;;;;;;5040398;28;20251;-80
2021/01/23 11:36:56;;;;;;;9.67;8.77;;;12.30;84.80;;;;;;5050155;28;20916;-78
2021/01/23 11:39:22;;;;;;;8.50;7.70;;;12.50;80.70;;;;;;5052009;28;20624;-79
2021/01/23 11:41:48;;;;;;;8.90;8.10;;;12.30;77.90;;;;;;5052953;28;20450;-78
2021/01/23 11:44:14;;;;;;;9.47;8.57;;;12.30;80.40;;;;;;5051451;28;20184;-79
2021/01/23 11:46:40;;;;;;;8.77;7.97;;;12.60;82.40;;;;;;5053241;28;20750;-76
2021/01/23 11:49:06;;;;;;;8.40;7.70;;;13.10;79.40;;;;;;5052896;28;20219;-77
2021/01/23 11:51:32;;;;;;;8.50;7.63;;;13.40;76.50;;;;;;5052840;28;20279;-75
2021/01/23 11:53:59;;;;;;;8.50;7.80;;;13.50;77.80;;;;;;5051569;28;20220;-76
2021/01/23 11:56:26;;;;;;;8.13;7.53;;;13.70;76.90;;;;;;5037906;28;20416;-78
2021/01/23 11:58:53;;;;;;;8.17;7.53;;;13.90;75.50;;;;;;5052963;28;20826;-75
2021/01/23 12:01:19;;;;;;;8.90;8.10;;;14.10;77.00;;;;;;5051996;28;20425;-76
2021/01/23 12:03:44;;;;;;;9.00;7.67;;;14.40;72.70;;;;;;5052978;28;20433;-79
2021/01/23 12:06:10;;;;;;;8.50;7.70;;;14.50;70.20;;;;;;5051958;28;20196;-79
2021/01/23 12:08:36;;;;;;;7.80;7.10;;;14.50;70.70;;;;;;5052642;28;20266;-78
2021/01/23 12:11:02;;;;;;;8.77;8.07;;;14.50;71.20;;;;;;5052624;28;20182;-78
2021/01/23 12:13:27;;;;;;;8.73;8.03;;;14.70;69.20;;;;;;5051912;28;20746;-78
2021/01/23 12:15:53;;;;;;;8.67;7.97;;;14.90;69.20;;;;;;5052452;28;20211;-78
2021/01/23 12:18:20;;;;;;;7.70;7.13;;;14.40;68.60;;;;;;5051823;28;20186;-78
2021/01/23 12:20:47;;;;;;;7.97;7.27;;;14.60;69.60;;;;;;5052856;28;20418;-78
2021/01/23 12:23:13;;;;;;;7.63;7.00;;;14.80;69.00;;;;;;5052063;28;20414;-78
2021/01/23 12:25:39;;;;;;;7.50;6.90;;;14.90;67.80;;;;;;5052546;28;20409;-77
2021/01/23 12:28:05;;;;;;;8.10;7.23;;;14.10;68.80;;;;;;5050608;28;20459;-78
2021/01/23 12:30:31;;;;;;;7.20;6.60;;;14.20;69.00;;;;;;5051386;28;20745;-78
2021/01/23 12:32:56;;;;;;;7.03;6.53;;;14.30;68.90;;;;;;5052431;28;20685;-78
2021/01/23 12:35:22;;;;;;;7.17;6.63;;;14.40;68.10;;;;;;5051201;28;20447;-78
2021/01/23 12:37:48;;;;;;;10.03;8.80;;;14.50;67.80;;;;;;5051883;28;20237;-78
2021/01/23 12:40:14;;;;;;;6.87;6.37;;;14.50;68.30;;;;;;5051506;28;20412;-76
2021/01/23 12:42:40;;;;;;;7.80;7.20;;;14.60;67.30;;;;;;5052178;28;20425;-75
2021/01/23 12:45:08;;;;;;;7.53;6.90;;;14.20;68.20;;;;;;5051038;28;20765;-74
2021/01/23 12:47:34;;;;;;;7.30;6.73;;;13.90;67.80;;;;;;5047301;28;20263;-76
2021/01/23 12:49:59;;;;;;;7.70;7.10;;;13.10;68.00;;;;;;5051754;28;20914;-75
2021/01/23 12:52:25;;;;;;;7.27;6.67;;;12.70;71.60;;;;;;5052814;28;20456;-75